createdAt,value
2022-09-11T00:00:57.400Z,1018.32
2022-09-11T00:02:57.553Z,1018.31
2022-09-11T00:04:57.311Z,1018.31
2022-09-11T00:06:57.292Z,1018.30
2022-09-11T00:08:57.374Z,1018.30
2022-09-11T00:10:57.345Z,1018.27
2022-09-11T00:12:57.367Z,1018.27
2022-09-11T00:14:57.315Z,1018.21
2022-09-11T00:16:57.299Z,1018.20
2022-09-11T00:18:57.343Z,1018.15
2022-09-11T00:20:57.325Z,1018.13
2022-09-11T00:22:57.321Z,1018.13
2022-09-11T00:24:57.387Z,1018.16
2022-09-11T00:26:57.330Z,1018.16
2022-09-11T00:28:57.397Z,1018.10
2022-09-11T00:30:57.433Z,1018.09
2022-09-11T00:32:57.318Z,1018.09
2022-09-11T00:34:57.337Z,1018.01
2022-09-11T00:36:57.357Z,1017.99
2022-09-11T00:38:57.359Z,1017.94
2022-09-11T00:40:57.324Z,1017.97
2022-09-11T00:42:57.336Z,1017.97
2022-09-11T00:44:57.354Z,1017.91
2022-09-11T00:46:57.337Z,1017.97
2022-09-11T00:48:57.349Z,1017.97
2022-09-11T00:50:57.323Z,1017.97
2022-09-11T00:52:57.382Z,1017.98
2022-09-11T00:54:57.369Z,1017.92
2022-09-11T00:56:57.327Z,1017.89
2022-09-11T00:58:57.374Z,1017.90
2022-09-11T01:00:57.480Z,1017.90
2022-09-11T01:02:57.327Z,1017.84
2022-09-11T01:04:57.365Z,1017.86
2022-09-11T01:06:57.334Z,1017.84
2022-09-11T01:08:57.354Z,1017.76
2022-09-11T01:10:57.359Z,1017.76
2022-09-11T01:12:57.363Z,1017.79
2022-09-11T01:14:57.385Z,1017.77
2022-09-11T01:16:57.357Z,1017.72
2022-09-11T01:18:57.396Z,1017.72
2022-09-11T01:20:57.510Z,1017.65
2022-09-11T01:22:57.500Z,1017.65
2022-09-11T01:24:57.389Z,1017.69
2022-09-11T01:26:57.367Z,1017.67
2022-09-11T01:28:57.384Z,1017.67
2022-09-11T01:30:57.385Z,1017.67
2022-09-11T01:32:57.391Z,1017.73
2022-09-11T01:34:57.387Z,1017.71
2022-09-11T01:36:57.504Z,1017.71
2022-09-11T01:39:27.431Z,1017.71
2022-09-11T01:41:27.391Z,1017.73
2022-09-11T01:43:27.387Z,1017.69
2022-09-11T01:45:27.402Z,1017.68
2022-09-11T01:47:27.471Z,1017.68
2022-09-11T01:49:27.394Z,1017.69
2022-09-11T01:51:27.379Z,1017.68
2022-09-11T01:53:27.377Z,1017.71
2022-09-11T01:55:27.379Z,1017.66
2022-09-11T01:57:27.397Z,1017.66
2022-09-11T01:59:27.398Z,1017.70
2022-09-11T02:01:27.421Z,1017.79
2022-09-11T02:03:27.381Z,1017.79
2022-09-11T02:05:27.433Z,1017.75
2022-09-11T02:07:27.372Z,1017.75
2022-09-11T02:09:27.380Z,1017.75
2022-09-11T02:11:27.423Z,1017.75
2022-09-11T02:13:27.937Z,1017.74
2022-09-11T02:15:28.902Z,1017.74
2022-09-11T02:17:27.390Z,1017.78
2022-09-11T02:19:27.519Z,1017.78
2022-09-11T02:21:27.420Z,1017.80
2022-09-11T02:23:27.537Z,1017.75
2022-09-11T02:25:27.393Z,1017.75
2022-09-11T02:27:27.444Z,1017.84
2022-09-11T02:29:27.476Z,1017.80
2022-09-11T02:31:27.467Z,1017.72
2022-09-11T02:33:27.441Z,1017.80
2022-09-11T02:35:27.547Z,1017.80
2022-09-11T02:37:27.440Z,1017.78
2022-09-11T02:39:27.400Z,1017.76
2022-09-11T02:41:27.457Z,1017.82
2022-09-11T02:43:27.453Z,1017.82
2022-09-11T02:45:27.478Z,1017.82
2022-09-11T02:47:27.399Z,1017.79
2022-09-11T02:49:27.441Z,1017.82
2022-09-11T02:51:27.439Z,1017.82
2022-09-11T02:53:27.414Z,1017.82
2022-09-11T02:55:27.440Z,1017.80
2022-09-11T02:57:27.401Z,1017.84
2022-09-11T02:59:27.436Z,1017.71
2022-09-11T03:01:27.442Z,1017.78
2022-09-11T03:03:27.544Z,1017.78
2022-09-11T03:05:27.487Z,1017.78
2022-09-11T03:07:27.422Z,1017.81
2022-09-11T03:09:27.443Z,1017.74
2022-09-11T03:11:27.444Z,1017.76
2022-09-11T03:13:27.471Z,1017.76
2022-09-11T03:15:27.511Z,1017.76
2022-09-11T03:17:27.431Z,1017.79
2022-09-11T03:19:27.461Z,1017.88
2022-09-11T03:21:27.433Z,1017.88
2022-09-11T03:23:27.495Z,1017.89
2022-09-11T03:25:27.425Z,1017.95
2022-09-11T03:27:27.429Z,1017.91
2022-09-11T03:29:27.427Z,1017.90
2022-09-11T03:31:57.488Z,1017.90
2022-09-11T03:33:57.508Z,1017.76
2022-09-11T03:35:57.487Z,1017.76
2022-09-11T03:37:57.473Z,1017.81
2022-09-11T03:39:57.497Z,1017.89
2022-09-11T03:41:57.449Z,1017.78
2022-09-11T03:43:57.436Z,1017.78
2022-09-11T03:45:57.595Z,1017.82
2022-09-11T03:47:57.500Z,1017.79
2022-09-11T03:49:57.444Z,1017.82
2022-09-11T03:51:57.525Z,1017.73
2022-09-11T03:53:57.443Z,1017.73
2022-09-11T03:55:57.479Z,1017.84
2022-09-11T03:57:57.550Z,1017.84
2022-09-11T03:59:57.588Z,1017.90
2022-09-11T04:01:57.570Z,1017.89
2022-09-11T04:03:57.521Z,1017.89
2022-09-11T04:07:50.476Z,1017.89
2022-09-11T04:09:50.475Z,1017.87
2022-09-11T04:11:50.551Z,1017.87
2022-09-11T04:13:50.467Z,1017.87
2022-09-11T04:15:50.513Z,1017.87
2022-09-11T04:17:50.511Z,1017.93
2022-09-11T04:19:50.498Z,1017.96
2022-09-11T04:21:50.477Z,1017.96
2022-09-11T04:23:50.510Z,1017.90
2022-09-11T04:25:50.492Z,1017.89
2022-09-11T04:27:50.537Z,1018.03
2022-09-11T04:29:50.505Z,1018.00
2022-09-11T04:31:50.536Z,1018.00
2022-09-11T04:33:50.580Z,1018.03
2022-09-11T04:35:50.509Z,1018.09
2022-09-11T04:37:50.511Z,1018.17
2022-09-11T04:39:50.581Z,1018.24
2022-09-11T04:41:50.519Z,1018.24
2022-09-11T04:43:50.579Z,1018.33
2022-09-11T04:45:50.563Z,1018.31
2022-09-11T04:47:50.588Z,1018.38
2022-09-11T04:49:50.510Z,1018.38
2022-09-11T04:51:50.515Z,1018.41
2022-09-11T04:53:50.508Z,1018.41
2022-09-11T04:55:50.546Z,1018.49
2022-09-11T04:57:50.553Z,1018.43
2022-09-11T05:00:20.553Z,1018.43
2022-09-11T05:02:20.538Z,1018.50
2022-09-11T05:04:25.277Z,1018.49
2022-09-11T05:06:20.512Z,1018.56
2022-09-11T05:08:20.533Z,1018.50
2022-09-11T05:10:20.521Z,1018.50
2022-09-11T05:12:20.527Z,1018.60
2022-09-11T05:14:20.599Z,1018.64
2022-09-11T05:16:20.593Z,1018.62
2022-09-11T05:18:20.618Z,1018.62
2022-09-11T05:20:20.522Z,1018.67
2022-09-11T05:22:20.527Z,1018.67
2022-09-11T05:24:20.648Z,1018.69
2022-09-11T05:26:20.547Z,1018.69
2022-09-11T05:28:20.533Z,1018.69
2022-09-11T05:30:20.534Z,1018.75
2022-09-11T05:32:20.565Z,1018.77
2022-09-11T05:34:20.560Z,1018.77
2022-09-11T05:36:20.537Z,1018.82
2022-09-11T05:38:20.636Z,1018.82
2022-09-11T05:40:20.528Z,1018.91
2022-09-11T05:42:20.527Z,1018.92
2022-09-11T05:44:20.573Z,1018.97
2022-09-11T05:46:20.580Z,1018.97
2022-09-11T05:48:20.655Z,1018.98
2022-09-11T05:50:20.659Z,1019.02
2022-09-11T05:52:20.568Z,1019.08
2022-09-11T05:54:20.663Z,1019.09
2022-09-11T05:56:20.577Z,1019.09
2022-09-11T05:58:20.583Z,1019.09
2022-09-11T06:00:20.553Z,1019.14
2022-09-11T06:02:20.674Z,1019.22
2022-09-11T06:04:20.659Z,1019.20
2022-09-11T06:06:20.567Z,1019.20
2022-09-11T06:08:20.557Z,1019.30
2022-09-11T06:10:20.565Z,1019.33
2022-09-11T06:12:20.561Z,1019.39
2022-09-11T06:14:20.621Z,1019.39
2022-09-11T06:16:20.709Z,1019.39
2022-09-11T06:18:20.712Z,1019.45
2022-09-11T06:20:20.576Z,1019.47
2022-09-11T06:22:20.695Z,1019.49
2022-09-11T06:24:20.598Z,1019.49
2022-09-11T06:26:20.624Z,1019.49
2022-09-11T06:28:20.574Z,1019.53
2022-09-11T06:30:20.681Z,1019.56
2022-09-11T06:32:20.575Z,1019.61
2022-09-11T06:34:20.596Z,1019.61
2022-09-11T06:36:20.617Z,1019.64
2022-09-11T06:38:20.608Z,1019.64
2022-09-11T06:40:20.585Z,1019.60
2022-09-11T06:42:20.707Z,1019.66
2022-09-11T06:44:20.593Z,1019.66
2022-09-11T06:46:20.600Z,1019.69
2022-09-11T06:48:20.589Z,1019.65
2022-09-11T06:50:20.617Z,1019.71
2022-09-11T06:52:20.607Z,1019.71
2022-09-11T06:54:20.688Z,1019.74
2022-09-11T06:56:50.609Z,1019.74
2022-09-11T06:58:50.605Z,1019.81
2022-09-11T07:00:50.641Z,1019.80
2022-09-11T07:02:52.706Z,1019.85
2022-09-11T07:04:50.619Z,1019.86
2022-09-11T07:06:50.593Z,1019.86
2022-09-11T07:08:50.749Z,1019.85
2022-09-11T07:10:50.607Z,1019.83
2022-09-11T07:12:50.622Z,1019.85
2022-09-11T07:14:50.617Z,1019.86
2022-09-11T07:16:50.641Z,1019.86
2022-09-11T07:18:50.631Z,1019.91
2022-09-11T07:20:50.724Z,1019.92
2022-09-11T07:22:50.672Z,1019.91
2022-09-11T07:24:50.617Z,1019.91
2022-09-11T07:26:50.635Z,1019.94
2022-09-11T07:28:50.649Z,1019.96
2022-09-11T07:30:50.699Z,1020.00
2022-09-11T07:32:50.613Z,1020.01
2022-09-11T07:34:50.620Z,1020.01
2022-09-11T07:36:50.766Z,1020.01
2022-09-11T07:38:50.743Z,1020.12
2022-09-11T07:40:50.745Z,1020.14
2022-09-11T07:42:50.639Z,1020.20
2022-09-11T07:44:50.680Z,1020.20
2022-09-11T07:46:50.643Z,1020.27
2022-09-11T07:48:50.631Z,1020.28
2022-09-11T07:50:50.758Z,1020.29
2022-09-11T07:52:50.638Z,1020.29
2022-09-11T07:54:50.632Z,1020.33
2022-09-11T07:56:50.712Z,1020.35
2022-09-11T07:58:50.750Z,1020.37
2022-09-11T08:00:50.705Z,1020.37
2022-09-11T08:02:50.723Z,1020.37
2022-09-11T08:04:50.753Z,1020.42
2022-09-11T08:06:50.836Z,1020.40
2022-09-11T08:08:50.740Z,1020.44
2022-09-11T08:10:50.860Z,1020.45
2022-09-11T08:12:50.665Z,1020.45
2022-09-11T08:14:50.692Z,1020.46
2022-09-11T08:16:50.759Z,1020.46
2022-09-11T08:18:50.739Z,1020.49
2022-09-11T08:20:50.720Z,1020.49
2022-09-11T08:22:50.777Z,1020.49
2022-09-11T08:24:50.747Z,1020.58
2022-09-11T08:26:50.829Z,1020.58
2022-09-11T08:28:50.775Z,1020.66
2022-09-11T08:30:50.830Z,1020.66
2022-09-11T08:32:53.284Z,1020.69
2022-09-11T08:34:51.777Z,1020.71
2022-09-11T08:36:50.780Z,1020.70
2022-09-11T08:38:50.773Z,1020.75
2022-09-11T08:40:50.797Z,1020.75
2022-09-11T08:42:50.768Z,1020.79
2022-09-11T08:44:50.775Z,1020.79
2022-09-11T08:46:50.685Z,1020.78
2022-09-11T08:48:50.811Z,1020.78
2022-09-11T08:51:20.791Z,1020.76
2022-09-11T08:53:20.770Z,1020.80
2022-09-11T08:55:20.791Z,1020.82
2022-09-11T08:57:20.801Z,1020.82
2022-09-11T08:59:20.724Z,1020.82
2022-09-11T09:01:23.804Z,1020.80
2022-09-11T09:03:20.737Z,1020.82
2022-09-11T09:05:20.808Z,1020.87
2022-09-11T09:07:20.849Z,1020.87
2022-09-11T09:09:20.791Z,1020.87
2022-09-11T09:11:20.856Z,1020.90
2022-09-11T09:13:20.838Z,1020.90
2022-09-11T09:15:20.847Z,1020.98
2022-09-11T09:17:20.723Z,1020.98
2022-09-11T09:19:20.725Z,1020.98
2022-09-11T09:21:20.806Z,1020.99
2022-09-11T09:23:20.778Z,1020.99
2022-09-11T09:25:20.789Z,1021.05
2022-09-11T09:27:20.831Z,1021.05
2022-09-11T09:29:20.876Z,1021.05
2022-09-11T09:31:20.857Z,1021.06
2022-09-11T09:33:20.739Z,1021.03
2022-09-11T09:35:20.788Z,1021.05
2022-09-11T09:37:20.813Z,1021.05
2022-09-11T09:39:20.773Z,1021.05
2022-09-11T09:41:20.859Z,1021.07
2022-09-11T09:43:20.751Z,1021.09
2022-09-11T09:45:20.846Z,1021.08
2022-09-11T09:47:20.778Z,1021.08
2022-09-11T09:49:21.162Z,1021.09
2022-09-11T09:51:21.099Z,1021.04
2022-09-11T09:53:20.808Z,1020.99
2022-09-11T09:55:20.811Z,1020.99
2022-09-11T09:57:20.830Z,1021.05
2022-09-11T09:59:20.860Z,1021.03
2022-09-11T10:01:20.837Z,1021.05
2022-09-11T10:03:20.762Z,1021.05
2022-09-11T10:05:20.797Z,1021.05
2022-09-11T10:07:20.853Z,1021.10
2022-09-11T10:09:20.903Z,1021.09
2022-09-11T10:11:20.824Z,1021.12
2022-09-11T10:13:20.894Z,1021.11
2022-09-11T10:15:20.861Z,1021.11
2022-09-11T10:17:20.878Z,1021.18
2022-09-11T10:19:21.056Z,1021.18
2022-09-11T10:21:20.948Z,1021.13
2022-09-11T10:23:20.899Z,1021.13
2022-09-11T10:25:20.813Z,1021.12
2022-09-11T10:27:22.074Z,1021.12
2022-09-11T10:29:20.949Z,1021.11
2022-09-11T10:31:20.889Z,1021.09
2022-09-11T10:33:20.862Z,1021.09
2022-09-11T10:35:20.942Z,1021.14
2022-09-11T10:37:20.954Z,1021.13
2022-09-11T10:39:20.907Z,1021.12
2022-09-11T10:41:21.146Z,1021.19
2022-09-11T10:43:20.912Z,1021.19
2022-09-11T10:45:20.861Z,1021.20
2022-09-11T10:47:50.897Z,1021.22
2022-09-11T10:49:51.101Z,1021.28
2022-09-11T10:51:51.035Z,1021.30
2022-09-11T10:53:50.961Z,1021.32
2022-09-11T10:55:51.092Z,1021.32
2022-09-11T10:57:51.065Z,1021.27
2022-09-11T10:59:51.181Z,1021.27
2022-09-11T11:01:39.468Z,1021.27
2022-09-11T11:03:39.399Z,1021.28
2022-09-11T11:05:39.288Z,1021.24
2022-09-11T11:07:39.163Z,1021.22
2022-09-11T11:09:39.187Z,1021.23
2022-09-11T11:11:39.184Z,1021.23
2022-09-11T11:13:39.216Z,1021.23
2022-09-11T11:15:39.378Z,1021.22
2022-09-11T11:17:39.215Z,1021.17
2022-09-11T11:19:39.152Z,1021.20
2022-09-11T11:21:39.553Z,1021.20
2022-09-11T11:23:39.153Z,1021.16
2022-09-11T11:25:39.189Z,1021.17
2022-09-11T11:27:39.218Z,1021.16
2022-09-11T11:29:39.235Z,1021.16
2022-09-11T11:31:43.689Z,1021.10
2022-09-11T11:33:39.253Z,1021.06
2022-09-11T11:35:39.144Z,1021.10
2022-09-11T11:37:39.276Z,1021.15
2022-09-11T11:39:39.201Z,1021.15
2022-09-11T11:41:39.256Z,1021.15
2022-09-11T11:43:39.198Z,1021.22
2022-09-11T11:45:39.315Z,1021.16
2022-09-11T11:47:39.251Z,1021.19
2022-09-11T11:49:39.250Z,1021.19
2022-09-11T11:51:39.292Z,1021.28
2022-09-11T11:53:39.151Z,1021.35
2022-09-11T11:55:39.212Z,1021.41
2022-09-11T11:57:39.243Z,1021.41
2022-09-11T12:00:09.219Z,1021.47
2022-09-11T12:02:09.393Z,1021.47
2022-09-11T12:04:09.295Z,1021.44
2022-09-11T12:06:09.272Z,1021.43
2022-09-11T12:08:09.185Z,1021.35
2022-09-11T12:10:09.348Z,1021.37
2022-09-11T12:12:09.215Z,1021.37
2022-09-11T12:14:09.257Z,1021.38
2022-09-11T12:16:11.363Z,1021.36
2022-09-11T12:18:09.284Z,1021.23
2022-09-11T12:20:09.380Z,1021.23
2022-09-11T12:22:09.301Z,1021.23
2022-09-11T12:24:09.311Z,1021.23
2022-09-11T12:26:09.241Z,1021.18
2022-09-11T12:28:09.355Z,1021.17
2022-09-11T12:30:09.242Z,1021.17
2022-09-11T12:32:09.291Z,1021.17
2022-09-11T12:34:09.278Z,1021.18
2022-09-11T12:36:09.188Z,1021.10
2022-09-11T12:38:09.330Z,1021.12
2022-09-11T12:40:09.344Z,1021.12
2022-09-11T12:42:09.320Z,1021.09
2022-09-11T12:44:09.254Z,1021.11
2022-09-11T12:46:09.349Z,1021.13
2022-09-11T12:48:09.231Z,1021.09
2022-09-11T12:50:09.299Z,1021.09
2022-09-11T12:52:09.305Z,1021.09
2022-09-11T12:54:09.258Z,1021.07
2022-09-11T12:56:09.264Z,1021.04
2022-09-11T12:58:09.322Z,1021.04
2022-09-11T13:00:09.312Z,1021.12
2022-09-11T13:02:09.374Z,1021.12
2022-09-11T13:04:09.344Z,1021.10
2022-09-11T13:06:09.343Z,1021.10
2022-09-11T13:08:09.328Z,1021.10
2022-09-11T13:10:09.277Z,1021.05
2022-09-11T13:12:09.241Z,1021.03
2022-09-11T13:14:09.279Z,1020.97
2022-09-11T13:16:09.301Z,1020.97
2022-09-11T13:18:09.294Z,1020.97
2022-09-11T13:20:09.399Z,1020.99
2022-09-11T13:22:09.555Z,1020.97
2022-09-11T13:24:09.441Z,1020.91
2022-09-11T13:26:09.355Z,1020.91
2022-09-11T13:28:09.287Z,1020.88
2022-09-11T13:30:09.346Z,1020.89
2022-09-11T13:32:09.283Z,1020.92
2022-09-11T13:34:09.345Z,1020.89
2022-09-11T13:36:09.393Z,1020.89
2022-09-11T13:38:09.324Z,1020.87
2022-09-11T13:40:09.407Z,1020.85
2022-09-11T13:42:09.247Z,1020.85
2022-09-11T13:44:09.287Z,1020.83
2022-09-11T13:46:09.336Z,1020.83
2022-09-11T13:48:09.307Z,1020.83
2022-09-11T13:50:09.388Z,1020.83
2022-09-11T13:52:09.391Z,1020.92
2022-09-11T13:54:09.417Z,1020.92
2022-09-11T13:56:09.292Z,1020.87
2022-09-11T13:58:09.281Z,1020.84
2022-09-11T14:00:39.300Z,1020.80
2022-09-11T14:02:39.381Z,1020.79
2022-09-11T14:04:39.338Z,1020.79
2022-09-11T14:06:39.374Z,1020.76
2022-09-11T14:08:39.359Z,1020.73
2022-09-11T14:10:39.369Z,1020.70
2022-09-11T14:12:39.389Z,1020.72
2022-09-11T14:14:39.291Z,1020.72
2022-09-11T14:16:39.312Z,1020.66
2022-09-11T14:18:39.343Z,1020.66
2022-09-11T14:20:39.361Z,1020.66
2022-09-11T14:22:39.429Z,1020.66
2022-09-11T14:24:39.442Z,1020.66
2022-09-11T14:26:39.305Z,1020.56
2022-09-11T14:28:39.421Z,1020.56
2022-09-11T14:30:39.320Z,1020.60
2022-09-11T14:32:39.335Z,1020.60
2022-09-11T14:34:39.354Z,1020.58
2022-09-11T14:36:39.362Z,1020.59
2022-09-11T14:38:39.390Z,1020.59
2022-09-11T14:40:39.396Z,1020.57
2022-09-11T14:42:39.311Z,1020.57
2022-09-11T14:44:39.448Z,1020.57
2022-09-11T14:46:39.371Z,1020.57
2022-09-11T14:48:39.391Z,1020.53
2022-09-11T14:50:39.378Z,1020.52
2022-09-11T14:52:39.364Z,1020.52
2022-09-11T14:54:39.384Z,1020.53
2022-09-11T14:56:39.440Z,1020.52
2022-09-11T14:58:39.387Z,1020.49
2022-09-11T15:00:39.302Z,1020.49
2022-09-11T15:02:39.361Z,1020.49
2022-09-11T15:04:39.367Z,1020.49
2022-09-11T15:06:39.387Z,1020.48
2022-09-11T15:08:39.407Z,1020.45
2022-09-11T15:10:39.420Z,1020.45
2022-09-11T15:12:39.410Z,1020.45
2022-09-11T15:14:55.712Z,1020.37
2022-09-11T15:16:39.353Z,1020.36
2022-09-11T15:18:39.359Z,1020.35
2022-09-11T15:20:39.359Z,1020.35
2022-09-11T15:22:39.412Z,1020.32
2022-09-11T15:24:39.443Z,1020.34
2022-09-11T15:26:39.421Z,1020.34
2022-09-11T15:28:39.468Z,1020.34
2022-09-11T15:30:39.365Z,1020.33
2022-09-11T15:32:39.387Z,1020.32
2022-09-11T15:34:39.611Z,1020.29
2022-09-11T15:36:39.413Z,1020.33
2022-09-11T15:38:39.445Z,1020.33
2022-09-11T15:40:40.365Z,1020.34
2022-09-11T15:42:39.794Z,1020.34
2022-09-11T15:44:39.388Z,1020.34
2022-09-11T15:46:39.477Z,1020.35
2022-09-11T15:48:39.393Z,1020.35
2022-09-11T15:50:39.423Z,1020.36
2022-09-11T15:52:39.422Z,1020.37
2022-09-11T15:54:39.465Z,1020.34
2022-09-11T15:56:39.440Z,1020.34
2022-09-11T15:58:39.499Z,1020.33
2022-09-11T16:01:09.424Z,1020.33
2022-09-11T16:03:09.339Z,1020.32
2022-09-11T16:05:09.425Z,1020.33
2022-09-11T16:07:09.438Z,1020.33
2022-09-11T16:09:09.431Z,1020.30
2022-09-11T16:11:09.441Z,1020.30
2022-09-11T16:13:09.453Z,1020.28
2022-09-11T16:15:09.388Z,1020.28
2022-09-11T16:17:09.511Z,1020.22
2022-09-11T16:19:09.411Z,1020.22
2022-09-11T16:21:09.462Z,1020.22
2022-09-11T16:23:09.473Z,1020.22
2022-09-11T16:25:09.463Z,1020.22
2022-09-11T16:27:09.511Z,1020.25
2022-09-11T16:29:09.481Z,1020.25
2022-09-11T16:31:09.588Z,1020.27
2022-09-11T16:33:09.366Z,1020.31
2022-09-11T16:35:09.457Z,1020.29
2022-09-11T16:37:09.448Z,1020.31
2022-09-11T16:39:09.459Z,1020.31
2022-09-11T16:41:09.501Z,1020.29
2022-09-11T16:43:09.500Z,1020.26
2022-09-11T16:45:09.487Z,1020.23
2022-09-11T16:47:09.533Z,1020.20
2022-09-11T16:49:09.395Z,1020.20
2022-09-11T16:51:09.485Z,1020.20
2022-09-11T16:53:09.471Z,1020.23
2022-09-11T16:55:09.488Z,1020.22
2022-09-11T16:57:09.557Z,1020.22
2022-09-11T16:59:09.506Z,1020.20
2022-09-11T17:01:09.503Z,1020.25
2022-09-11T17:03:09.450Z,1020.24
2022-09-11T17:05:09.392Z,1020.24
2022-09-11T17:07:09.431Z,1020.24
2022-09-11T17:09:09.548Z,1020.28
2022-09-11T17:11:09.476Z,1020.30
2022-09-11T17:13:09.475Z,1020.27
2022-09-11T17:15:09.582Z,1020.27
2022-09-11T17:17:09.507Z,1020.27
2022-09-11T17:19:09.436Z,1020.27
2022-09-11T17:21:09.454Z,1020.28
2022-09-11T17:23:09.540Z,1020.29
2022-09-11T17:25:09.478Z,1020.31
2022-09-11T17:27:09.476Z,1020.31
2022-09-11T17:29:09.605Z,1020.30
2022-09-11T17:31:09.602Z,1020.26
2022-09-11T17:33:09.544Z,1020.23
2022-09-11T17:35:09.492Z,1020.23
2022-09-11T17:37:09.545Z,1020.22
2022-09-11T17:39:09.502Z,1020.23
2022-09-11T17:41:09.519Z,1020.24
2022-09-11T17:43:09.494Z,1020.27
2022-09-11T17:45:09.545Z,1020.27
2022-09-11T17:47:09.579Z,1020.27
2022-09-11T17:49:09.629Z,1020.34
2022-09-11T17:51:09.500Z,1020.37
2022-09-11T17:53:09.543Z,1020.35
2022-09-11T17:55:09.648Z,1020.35
2022-09-11T17:57:09.554Z,1020.39
2022-09-11T17:59:09.545Z,1020.39
2022-09-11T18:01:39.641Z,1020.42
2022-09-11T18:03:39.647Z,1020.42
2022-09-11T18:05:39.579Z,1020.44
2022-09-11T18:07:39.496Z,1020.52
2022-09-11T18:09:39.575Z,1020.46
2022-09-11T18:13:19.740Z,1020.43
2022-09-11T18:15:19.761Z,1020.43
2022-09-11T18:17:19.850Z,1020.44
2022-09-11T18:19:19.806Z,1020.45
2022-09-11T18:21:19.821Z,1020.48
2022-09-11T18:23:19.802Z,1020.48
2022-09-11T18:25:19.771Z,1020.49
2022-09-11T18:27:19.944Z,1020.49
2022-09-11T18:29:20.138Z,1020.44
2022-09-11T18:31:19.836Z,1020.44
2022-09-11T18:33:19.820Z,1020.46
2022-09-11T18:35:19.816Z,1020.51
2022-09-11T18:37:19.819Z,1020.51
2022-09-11T18:39:19.773Z,1020.48
2022-09-11T18:41:49.737Z,1020.48
2022-09-11T18:43:49.862Z,1020.45
2022-09-11T18:45:49.829Z,1020.45
2022-09-11T18:47:49.817Z,1020.52
2022-09-11T18:49:49.837Z,1020.55
2022-09-11T18:51:49.830Z,1020.56
2022-09-11T18:53:49.864Z,1020.56
2022-09-11T18:55:49.889Z,1020.56
2022-09-11T18:57:49.825Z,1020.57
2022-09-11T18:59:49.821Z,1020.59
2022-09-11T19:01:49.868Z,1020.60
2022-09-11T19:03:49.828Z,1020.60
2022-09-11T19:05:49.894Z,1020.60
2022-09-11T19:07:49.914Z,1020.60
2022-09-11T19:09:49.894Z,1020.61
2022-09-11T19:11:49.750Z,1020.61
2022-09-11T19:13:49.794Z,1020.61
2022-09-11T19:15:49.868Z,1020.60
2022-09-11T19:17:49.824Z,1020.58
2022-09-11T19:19:49.842Z,1020.60
2022-09-11T19:21:49.872Z,1020.68
2022-09-11T19:23:49.781Z,1020.68
2022-09-11T19:25:49.760Z,1020.66
2022-09-11T19:27:49.817Z,1020.67
2022-09-11T19:29:49.858Z,1020.68
2022-09-11T19:31:49.872Z,1020.68
2022-09-11T19:33:49.848Z,1020.66
2022-09-11T19:35:49.858Z,1020.68
2022-09-11T19:37:49.893Z,1020.75
2022-09-11T19:39:49.854Z,1020.75
2022-09-11T19:41:49.815Z,1020.75
2022-09-11T19:43:49.780Z,1020.78
2022-09-11T19:45:50.297Z,1020.76
2022-09-11T19:47:49.844Z,1020.76
2022-09-11T19:49:49.867Z,1020.77
2022-09-11T19:51:49.891Z,1020.77
2022-09-11T19:53:49.921Z,1020.78
2022-09-11T19:55:49.945Z,1020.79
2022-09-11T19:57:49.796Z,1020.74
2022-09-11T19:59:49.802Z,1020.74
2022-09-11T20:01:49.894Z,1020.70
2022-09-11T20:03:49.861Z,1020.71
2022-09-11T20:05:49.872Z,1020.69
2022-09-11T20:07:49.764Z,1020.70
2022-09-11T20:09:49.773Z,1020.70
2022-09-11T20:11:49.815Z,1020.68
2022-09-11T20:13:49.859Z,1020.65
2022-09-11T20:15:49.872Z,1020.64
2022-09-11T20:17:49.921Z,1020.65
2022-09-11T20:19:50.004Z,1020.65
2022-09-11T20:21:49.883Z,1020.63
2022-09-11T20:23:49.809Z,1020.61
2022-09-11T20:25:50.027Z,1020.59
2022-09-11T20:27:49.786Z,1020.59
2022-09-11T20:29:49.842Z,1020.59
2022-09-11T20:31:49.898Z,1020.61
2022-09-11T20:36:19.959Z,1020.60
2022-09-11T20:38:19.941Z,1020.60
2022-09-11T20:40:19.947Z,1020.58
2022-09-11T20:42:19.981Z,1020.60
2022-09-11T20:44:19.862Z,1020.60
2022-09-11T20:46:19.940Z,1020.59
2022-09-11T20:48:19.908Z,1020.59
2022-09-11T20:50:19.853Z,1020.57
2022-09-11T20:52:19.955Z,1020.58
2022-09-11T20:54:19.932Z,1020.55
2022-09-11T20:56:19.935Z,1020.56
2022-09-11T20:58:19.872Z,1020.56
2022-09-11T21:00:19.882Z,1020.55
2022-09-11T21:02:19.929Z,1020.54
2022-09-11T21:04:19.849Z,1020.50
2022-09-11T21:06:24.783Z,1020.50
2022-09-11T21:08:19.817Z,1020.50
2022-09-11T21:10:19.832Z,1020.50
2022-09-11T21:12:19.857Z,1020.43
2022-09-11T21:14:19.868Z,1020.45
2022-09-11T21:16:20.090Z,1020.45
2022-09-11T21:18:19.862Z,1020.44
2022-09-11T21:20:19.937Z,1020.46
2022-09-11T21:22:19.832Z,1020.39
2022-09-11T21:24:19.832Z,1020.39
2022-09-11T21:26:19.866Z,1020.39
2022-09-11T21:28:19.853Z,1020.36
2022-09-11T21:30:19.870Z,1020.32
2022-09-11T21:32:19.804Z,1020.31
2022-09-11T21:34:19.833Z,1020.31
2022-09-11T21:36:19.841Z,1020.29
2022-09-11T21:38:19.962Z,1020.29
2022-09-11T21:40:19.935Z,1020.26
2022-09-11T21:42:19.883Z,1020.29
2022-09-11T21:44:19.884Z,1020.29
2022-09-11T21:46:19.892Z,1020.26
2022-09-11T21:48:19.927Z,1020.28
2022-09-11T21:50:19.852Z,1020.28
2022-09-11T21:52:19.861Z,1020.33
2022-09-11T21:54:19.896Z,1020.33
2022-09-11T21:56:19.880Z,1020.27
2022-09-11T21:58:19.860Z,1020.26
2022-09-11T22:00:19.886Z,1020.22
2022-09-11T22:02:19.949Z,1020.22
2022-09-11T22:04:20.049Z,1020.27
2022-09-11T22:06:19.851Z,1020.25
2022-09-11T22:08:19.940Z,1020.31
2022-09-11T22:10:19.854Z,1020.34
2022-09-11T22:12:19.850Z,1020.34
2022-09-11T22:14:19.870Z,1020.31
2022-09-11T22:16:20.007Z,1020.29
2022-09-11T22:18:19.849Z,1020.28
2022-09-11T22:20:19.945Z,1020.26
2022-09-11T22:22:19.878Z,1020.26
2022-09-11T22:24:20.002Z,1020.26
2022-09-11T22:26:49.897Z,1020.25
2022-09-11T22:28:49.857Z,1020.22
2022-09-11T22:30:49.889Z,1020.22
2022-09-11T22:32:49.991Z,1020.17
2022-09-11T22:34:49.887Z,1020.17
2022-09-11T22:36:49.881Z,1020.18
2022-09-11T22:38:49.878Z,1020.20
2022-09-11T22:40:49.934Z,1020.20
2022-09-11T22:42:50.007Z,1020.19
2022-09-11T22:44:50.047Z,1020.19
2022-09-11T22:46:49.882Z,1020.25
2022-09-11T22:48:49.939Z,1020.26
2022-09-11T22:50:49.935Z,1020.26
2022-09-11T22:52:49.949Z,1020.23
2022-09-11T22:54:49.909Z,1020.23
2022-09-11T22:56:49.877Z,1020.21
2022-09-11T22:58:49.914Z,1020.18
2022-09-11T23:00:49.946Z,1020.17
2022-09-11T23:02:49.901Z,1020.17
2022-09-11T23:04:49.890Z,1020.16
2022-09-11T23:06:49.881Z,1020.17
2022-09-11T23:08:50.041Z,1020.16
2022-09-11T23:10:49.958Z,1020.16
2022-09-11T23:12:49.892Z,1020.16
2022-09-11T23:14:49.937Z,1020.16
2022-09-11T23:16:49.933Z,1020.16
2022-09-11T23:18:49.928Z,1020.15
2022-09-11T23:20:53.555Z,1020.13
2022-09-11T23:22:49.914Z,1020.13
2022-09-11T23:24:49.892Z,1020.08
2022-09-11T23:26:49.893Z,1020.09
2022-09-11T23:28:49.904Z,1020.07
2022-09-11T23:30:49.928Z,1020.08
2022-09-11T23:32:49.951Z,1020.08
2022-09-11T23:34:49.884Z,1020.04
2022-09-11T23:36:50.004Z,1020.01
2022-09-11T23:38:49.982Z,1020.01
2022-09-11T23:40:49.916Z,1020.01
2022-09-11T23:42:50.023Z,1019.97
2022-09-11T23:44:49.914Z,1019.96
2022-09-11T23:46:49.951Z,1019.98
2022-09-11T23:48:49.999Z,1019.96
2022-09-11T23:50:49.928Z,1019.96
2022-09-11T23:52:50.016Z,1019.96
2022-09-11T23:54:49.918Z,1019.96
2022-09-11T23:56:49.982Z,1019.92
2022-09-11T23:58:49.970Z,1019.91
